메인 페이지
METAR-TAF:

METAR-TAF

공항 :

이르쿠츠크 국제공항

이르쿠츠크, 러시아

위도: 52-16N, 경도: 104-19E, 고도: 513m

현재 날씨관측

예보는 38분 전, 16:30시(UTC)에 발표되었습니다.
서북서2kt
온도 11°C
습도 100%
기압 1006 hPa
시정 10km 이상
고도 5000ft 상공 구름 조금, 적란운.

METAR: UIII 311630Z 30001MPS 9999 FEW050CB 11/11 Q1006 R30/290150 NOSIG RMK QFE710/0947

시각: 01:08 (17:08 UTC)

예보

예보는 3 시간 8분 전, 14:00시(UTC)에 발표되었습니다.
예보 대상 시간: 31일 15시부터 01일 15시까지 (UTC)
북서10kt, 순간 최대 풍속 19kt
시정 10km 이상
고도 1100ft 상공 구름 많음, 적란운.
일시적
31일 15시부터 01일 12시까지 (UTC)
여러 방향의 바람 23kt
고도 900ft 상공 구름 많음, 적란운.
뇌우, 약한비

TAF: UIII 311400Z 3115/0115 32005G10MPS 9999 BKN011CB TEMPO 3115/0112 VRB12MPS -TSRA BKN009CB

4,000개 이상의 공항 관측 자료 및 예보 (METAR 및 TAF 보고).

지도상에서 검색 가능한 기상관측소가 노란 점과 빨간 점으로 표시되어 있습니다.

기상관측소 명을 보려면 표시 위로 마우스를 이동하세요.

날씨 관측과 예보를 보려면 클릭하세요.

지도 변경 : 확대하려면 엑스 표시가 있는 녹색 버튼, 축소하려면 빼기 표시가 있는 녹색 버튼, 다음 페이지의 지도를 보려면 녹색 화살표를 클릭하세요.


METAR-TAF: